sensor_id;sensor_type;location;lat;lon;timestamp;pressure;altitude;pressure_sealevel;temperature;humidity
43691;BME280;29293;52.190;21.226;2023-05-14T00:08:03;101029.27;;;7.96;100.00
43691;BME280;29293;52.190;21.226;2023-05-14T00:23:10;101038.16;;;7.68;100.00
43691;BME280;29293;52.190;21.226;2023-05-14T00:38:18;101028.23;;;7.19;100.00
43691;BME280;29293;52.190;21.226;2023-05-14T00:53:25;101023.09;;;6.88;100.00
43691;BME280;29293;52.190;21.226;2023-05-14T01:08:58;101008.91;;;6.61;100.00
43691;BME280;29293;52.190;21.226;2023-05-14T01:24:07;101016.75;;;6.41;100.00
43691;BME280;29293;52.190;21.226;2023-05-14T01:39:15;101014.77;;;6.27;100.00
43691;BME280;29293;52.190;21.226;2023-05-14T01:54:24;101004.63;;;6.18;100.00
43691;BME280;29293;52.190;21.226;2023-05-14T02:09:29;100995.52;;;6.07;100.00
43691;BME280;29293;52.190;21.226;2023-05-14T02:24:36;100990.23;;;5.99;100.00
43691;BME280;29293;52.190;21.226;2023-05-14T02:39:43;100988.69;;;5.90;100.00
43691;BME280;29293;52.190;21.226;2023-05-14T02:54:51;100985.63;;;5.73;100.00
43691;BME280;29293;52.190;21.226;2023-05-14T03:09:58;100987.95;;;5.64;100.00
43691;BME280;29293;52.190;21.226;2023-05-14T03:25:07;100984.70;;;5.58;100.00
43691;BME280;29293;52.190;21.226;2023-05-14T03:40:14;100980.02;;;5.64;100.00
43691;BME280;29293;52.190;21.226;2023-05-14T03:55:21;100979.08;;;5.86;100.00
43691;BME280;29293;52.190;21.226;2023-05-14T04:10:28;100966.45;;;6.20;100.00
43691;BME280;29293;52.190;21.226;2023-05-14T04:25:35;100962.13;;;6.70;100.00
43691;BME280;29293;52.190;21.226;2023-05-14T04:40:42;100971.83;;;7.41;100.00
43691;BME280;29293;52.190;21.226;2023-05-14T04:55:49;100968.00;;;8.36;100.00
43691;BME280;29293;52.190;21.226;2023-05-14T05:10:56;100964.89;;;9.38;100.00
43691;BME280;29293;52.190;21.226;2023-05-14T05:26:03;100958.02;;;10.45;100.00
43691;BME280;29293;52.190;21.226;2023-05-14T05:41:10;100956.21;;;11.44;100.00
43691;BME280;29293;52.190;21.226;2023-05-14T05:56:17;100951.98;;;12.41;100.00
43691;BME280;29293;52.190;21.226;2023-05-14T06:11:24;100949.89;;;13.36;100.00
43691;BME280;29293;52.190;21.226;2023-05-14T06:26:31;100946.05;;;14.08;100.00
43691;BME280;29293;52.190;21.226;2023-05-14T06:41:38;100947.80;;;15.19;100.00
43691;BME280;29293;52.190;21.226;2023-05-14T06:56:45;100939.02;;;17.30;100.00
43691;BME280;29293;52.190;21.226;2023-05-14T07:11:52;100941.48;;;18.73;91.88
43691;BME280;29293;52.190;21.226;2023-05-14T07:26:58;100929.23;;;19.60;79.66
43691;BME280;29293;52.190;21.226;2023-05-14T07:42:07;100923.73;;;20.12;61.44
43691;BME280;29293;52.190;21.226;2023-05-14T07:57:14;100915.84;;;20.64;52.08
43691;BME280;29293;52.190;21.226;2023-05-14T08:12:21;100902.92;;;20.97;46.51
43691;BME280;29293;52.190;21.226;2023-05-14T08:27:28;100887.63;;;21.43;45.60
43691;BME280;29293;52.190;21.226;2023-05-14T08:42:38;100871.02;;;21.96;43.89
43691;BME280;29293;52.190;21.226;2023-05-14T08:57:47;100862.18;;;22.20;40.83
43691;BME280;29293;52.190;21.226;2023-05-14T09:12:54;100855.80;;;22.61;38.54
43691;BME280;29293;52.190;21.226;2023-05-14T09:28:06;100848.36;;;22.87;37.32
43691;BME280;29293;52.190;21.226;2023-05-14T09:43:14;100846.83;;;23.36;35.58
43691;BME280;29293;52.190;21.226;2023-05-14T09:58:21;100839.52;;;23.51;32.52
43691;BME280;29293;52.190;21.226;2023-05-14T10:13:32;100820.38;;;23.68;31.36
43691;BME280;29293;52.190;21.226;2023-05-14T10:28:46;100809.56;;;23.95;30.60
43691;BME280;29293;52.190;21.226;2023-05-14T10:43:53;100803.80;;;24.07;30.01
43691;BME280;29293;52.190;21.226;2023-05-14T10:59:06;100786.54;;;23.80;30.74
43691;BME280;29293;52.190;21.226;2023-05-14T11:14:13;100766.85;;;23.03;31.35
43691;BME280;29293;52.190;21.226;2023-05-14T11:29:20;100730.61;;;23.39;32.58
43691;BME280;29293;52.190;21.226;2023-05-14T11:44:28;100709.32;;;24.40;31.03
43691;BME280;29293;52.190;21.226;2023-05-14T11:59:35;100684.06;;;24.47;29.68
43691;BME280;29293;52.190;21.226;2023-05-14T12:14:43;100657.34;;;24.60;29.77
43691;BME280;29293;52.190;21.226;2023-05-14T12:29:51;100634.76;;;24.66;29.20
43691;BME280;29293;52.190;21.226;2023-05-14T12:45:05;100620.87;;;24.72;29.21
43691;BME280;29293;52.190;21.226;2023-05-14T13:00:20;100611.91;;;25.01;28.76
43691;BME280;29293;52.190;21.226;2023-05-14T13:15:27;100597.69;;;24.69;28.34
43691;BME280;29293;52.190;21.226;2023-05-14T13:30:38;100588.70;;;23.88;28.92
43691;BME280;29293;52.190;21.226;2023-05-14T13:45:45;100571.16;;;23.13;30.32
43691;BME280;29293;52.190;21.226;2023-05-14T14:00:54;100557.97;;;23.83;29.99
43691;BME280;29293;52.190;21.226;2023-05-14T14:16:25;100530.27;;;25.01;29.04
43691;BME280;29293;52.190;21.226;2023-05-14T14:31:33;100504.95;;;25.19;28.80
43691;BME280;29293;52.190;21.226;2023-05-14T14:46:41;100486.07;;;24.89;28.78
43691;BME280;29293;52.190;21.226;2023-05-14T15:01:48;100476.86;;;24.06;29.65
43691;BME280;29293;52.190;21.226;2023-05-14T15:16:55;100467.95;;;23.49;30.76
43691;BME280;29293;52.190;21.226;2023-05-14T15:32:02;100458.48;;;22.76;30.41
43691;BME280;29293;52.190;21.226;2023-05-14T15:47:09;100451.77;;;22.24;32.13
43691;BME280;29293;52.190;21.226;2023-05-14T16:02:17;100442.08;;;21.85;31.78
43691;BME280;29293;52.190;21.226;2023-05-14T16:17:24;100430.54;;;21.30;33.89
43691;BME280;29293;52.190;21.226;2023-05-14T16:32:32;100424.51;;;21.00;34.28
43691;BME280;29293;52.190;21.226;2023-05-14T16:47:39;100403.43;;;20.89;34.04
43691;BME280;29293;52.190;21.226;2023-05-14T17:02:47;100394.01;;;20.64;35.22
43691;BME280;29293;52.190;21.226;2023-05-14T17:17:56;100390.41;;;20.37;36.20
43691;BME280;29293;52.190;21.226;2023-05-14T17:33:03;100379.77;;;19.99;37.07
43691;BME280;29293;52.190;21.226;2023-05-14T17:48:10;100387.29;;;19.61;37.69
43691;BME280;29293;52.190;21.226;2023-05-14T18:03:17;100381.18;;;19.27;38.51
43691;BME280;29293;52.190;21.226;2023-05-14T18:18:25;100376.16;;;18.72;40.64
43691;BME280;29293;52.190;21.226;2023-05-14T18:33:32;100377.83;;;17.97;43.36
43691;BME280;29293;52.190;21.226;2023-05-14T18:48:39;100382.64;;;17.15;47.65
43691;BME280;29293;52.190;21.226;2023-05-14T19:03:46;100380.61;;;16.39;49.25
43691;BME280;29293;52.190;21.226;2023-05-14T19:18:57;100376.11;;;15.78;51.38
43691;BME280;29293;52.190;21.226;2023-05-14T19:34:04;100360.35;;;15.23;53.23
43691;BME280;29293;52.190;21.226;2023-05-14T19:49:11;100351.57;;;14.82;54.86
43691;BME280;29293;52.190;21.226;2023-05-14T20:04:18;100343.38;;;14.46;57.17
43691;BME280;29293;52.190;21.226;2023-05-14T20:19:25;100340.27;;;14.11;59.39
43691;BME280;29293;52.190;21.226;2023-05-14T20:34:33;100328.14;;;13.92;60.28
43691;BME280;29293;52.190;21.226;2023-05-14T20:49:40;100316.30;;;13.73;62.12
43691;BME280;29293;52.190;21.226;2023-05-14T21:04:47;100293.23;;;13.50;63.35
43691;BME280;29293;52.190;21.226;2023-05-14T21:19:54;100275.74;;;13.59;63.40
43691;BME280;29293;52.190;21.226;2023-05-14T21:35:01;100263.42;;;13.80;62.75
43691;BME280;29293;52.190;21.226;2023-05-14T21:50:09;100262.34;;;14.02;61.69
43691;BME280;29293;52.190;21.226;2023-05-14T22:05:17;100250.46;;;14.08;61.29
43691;BME280;29293;52.190;21.226;2023-05-14T22:20:24;100236.53;;;14.13;60.84
43691;BME280;29293;52.190;21.226;2023-05-14T22:35:32;100226.72;;;14.14;60.84
43691;BME280;29293;52.190;21.226;2023-05-14T22:50:39;100206.29;;;14.10;60.57
43691;BME280;29293;52.190;21.226;2023-05-14T23:05:46;100191.62;;;14.04;60.41
43691;BME280;29293;52.190;21.226;2023-05-14T23:20:56;100174.80;;;13.98;60.12
43691;BME280;29293;52.190;21.226;2023-05-14T23:36:01;100152.02;;;13.92;59.94
43691;BME280;29293;52.190;21.226;2023-05-14T23:51:08;100127.95;;;13.85;59.76
